createdAt,value
2019-02-07T00:00:43.802Z,26.80
2019-02-07T00:03:12.338Z,27.00
2019-02-07T00:05:40.903Z,26.57
2019-02-07T00:08:09.447Z,24.83
2019-02-07T00:10:38.483Z,26.90
2019-02-07T00:13:07.015Z,26.40
2019-02-07T00:15:36.578Z,26.47
2019-02-07T00:18:05.663Z,26.90
2019-02-07T00:20:34.207Z,25.47
2019-02-07T00:23:03.020Z,26.90
2019-02-07T00:25:32.004Z,25.73
2019-02-07T00:28:00.682Z,27.03
2019-02-07T00:30:29.367Z,27.23
2019-02-07T00:32:58.002Z,25.57
2019-02-07T00:35:26.682Z,26.43
2019-02-07T00:37:55.274Z,27.73
2019-02-07T00:40:23.882Z,25.93
2019-02-07T00:42:52.492Z,25.77
2019-02-07T00:45:21.055Z,25.07
2019-02-07T00:47:49.699Z,25.67
2019-02-07T00:50:21.280Z,26.20
2019-02-07T00:52:49.815Z,26.57
2019-02-07T00:55:19.926Z,26.63
2019-02-07T00:57:48.659Z,26.23
2019-02-07T01:00:28.214Z,25.00
2019-02-07T01:02:56.897Z,24.87
2019-02-07T01:05:25.798Z,25.83
2019-02-07T01:07:54.482Z,25.20
2019-02-07T01:10:32.342Z,26.13
2019-02-07T01:13:00.949Z,26.53
2019-02-07T01:15:30.060Z,24.37
2019-02-07T01:17:58.666Z,25.47
2019-02-07T01:20:27.371Z,25.23
2019-02-07T01:22:59.842Z,27.03
2019-02-07T01:25:28.432Z,25.33
2019-02-07T01:27:57.207Z,26.43
2019-02-07T01:30:27.185Z,25.80
2019-02-07T01:32:55.903Z,26.40
2019-02-07T01:35:24.582Z,25.00
2019-02-07T01:37:53.700Z,24.50
2019-02-07T01:40:23.218Z,24.77
2019-02-07T01:42:51.910Z,26.07
2019-02-07T01:45:24.539Z,25.40
2019-02-07T01:47:53.443Z,24.77
2019-02-07T01:50:23.786Z,25.13
2019-02-07T01:52:52.890Z,26.40
2019-02-07T01:55:21.666Z,25.17
2019-02-07T01:57:50.470Z,26.40
2019-02-07T02:00:20.152Z,25.00
2019-02-07T02:02:49.055Z,26.67
2019-02-07T02:05:19.235Z,26.63
2019-02-07T02:07:49.718Z,25.37
2019-02-07T02:10:23.815Z,25.07
2019-02-07T02:12:52.722Z,25.27
2019-02-07T02:15:24.875Z,27.30
2019-02-07T02:17:52.742Z,25.47
2019-02-07T02:20:24.160Z,25.00
2019-02-07T02:22:54.237Z,25.43
2019-02-07T02:25:23.443Z,25.70
2019-02-07T02:27:52.151Z,24.37
2019-02-07T02:30:31.635Z,24.63
2019-02-07T02:33:00.829Z,23.83
2019-02-07T02:35:29.634Z,24.40
2019-02-07T02:37:58.178Z,23.57
2019-02-07T02:40:26.983Z,23.70
2019-02-07T02:42:55.994Z,23.73
2019-02-07T02:45:36.679Z,23.37
2019-02-07T02:47:56.619Z,23.20
2019-02-07T02:50:25.226Z,23.40
2019-02-07T02:52:53.934Z,23.17
2019-02-07T02:55:30.246Z,23.03
2019-02-07T02:57:58.951Z,22.33
2019-02-07T03:00:47.886Z,22.47
2019-02-07T03:03:30.375Z,23.10
2019-02-07T03:06:16.699Z,23.93
2019-02-07T03:08:55.709Z,23.53
2019-02-07T03:11:25.912Z,22.70
2019-02-07T03:13:56.159Z,22.10
2019-02-07T03:16:26.389Z,21.57
2019-02-07T03:19:08.781Z,22.27
2019-02-07T03:21:39.054Z,22.23
2019-02-07T03:24:21.175Z,23.20
2019-02-07T03:26:53.943Z,23.63
2019-02-07T03:29:40.720Z,22.73
2019-02-07T03:32:10.978Z,21.50
2019-02-07T03:34:50.195Z,21.77
2019-02-07T03:37:23.316Z,21.87
2019-02-07T03:39:59.428Z,22.17
2019-02-07T03:42:29.620Z,22.13
2019-02-07T03:45:08.571Z,22.37
2019-02-07T03:47:38.827Z,22.27
2019-02-07T03:50:24.578Z,23.27
2019-02-07T03:53:00.900Z,20.57
2019-02-07T03:55:31.178Z,22.07
2019-02-07T03:58:17.010Z,21.70
2019-02-07T04:00:53.242Z,21.40
2019-02-07T04:03:32.203Z,21.83
2019-02-07T04:06:18.043Z,21.17
2019-02-07T04:09:04.257Z,22.40
2019-02-07T04:11:34.522Z,21.73
2019-02-07T04:14:10.818Z,22.90
2019-02-07T04:16:41.118Z,21.73
2019-02-07T04:19:13.984Z,22.43
2019-02-07T04:21:44.251Z,23.30
2019-02-07T04:24:17.990Z,22.13
2019-02-07T04:26:46.375Z,22.13
2019-02-07T04:29:34.862Z,22.47
2019-02-07T04:32:21.731Z,22.00
2019-02-07T04:34:54.747Z,22.10
2019-02-07T04:37:39.950Z,22.07
2019-02-07T04:40:27.935Z,21.87
2019-02-07T04:42:58.203Z,22.40
2019-02-07T04:45:28.458Z,21.33
2019-02-07T04:48:01.645Z,23.07
2019-02-07T04:50:34.654Z,23.97
2019-02-07T04:53:23.153Z,23.97
2019-02-07T04:56:09.634Z,23.83
2019-02-07T04:58:39.835Z,23.13
2019-02-07T05:01:22.234Z,23.80
2019-02-07T05:03:58.438Z,22.27
2019-02-07T05:06:45.215Z,21.97
2019-02-07T05:09:24.516Z,21.30
2019-02-07T05:12:00.486Z,21.87
2019-02-07T05:14:33.197Z,21.53
2019-02-07T05:17:09.470Z,22.73
2019-02-07T05:19:56.127Z,22.90
2019-02-07T05:22:35.315Z,22.60
2019-02-07T05:25:22.842Z,22.13
2019-02-07T05:27:53.118Z,22.17
2019-02-07T05:30:23.258Z,23.00
2019-02-07T05:32:56.163Z,22.40
2019-02-07T05:35:26.334Z,22.70
2019-02-07T05:38:02.806Z,23.60
2019-02-07T05:40:41.823Z,21.50
2019-02-07T05:45:59.143Z,22.37
2019-02-07T05:48:45.709Z,23.17
2019-02-07T05:51:21.787Z,22.00
2019-02-07T05:53:52.002Z,23.40
2019-02-07T05:56:22.254Z,23.00
2019-02-07T05:59:08.831Z,23.07
2019-02-07T06:01:39.015Z,22.27
2019-02-07T06:04:14.989Z,22.27
2019-02-07T06:06:48.135Z,21.97
2019-02-07T06:09:34.862Z,22.80
2019-02-07T06:12:23.351Z,23.77
2019-02-07T06:14:59.622Z,22.53
2019-02-07T06:17:29.834Z,25.00
2019-02-07T06:20:02.856Z,23.53
2019-02-07T06:22:45.283Z,23.70
2019-02-07T06:25:15.477Z,22.37
2019-02-07T06:27:45.687Z,23.80
2019-02-07T06:30:26.990Z,22.27
2019-02-07T06:33:02.980Z,23.07
2019-02-07T06:35:46.251Z,22.93
2019-02-07T06:38:22.296Z,22.87
2019-02-07T06:40:52.552Z,22.80
2019-02-07T06:43:26.047Z,24.20
2019-02-07T06:46:02.318Z,24.03
2019-02-07T06:48:35.274Z,23.37
2019-02-07T06:51:08.396Z,23.93
2019-02-07T06:53:41.558Z,23.53
2019-02-07T06:56:28.020Z,24.00
2019-02-07T06:59:01.002Z,23.30
2019-02-07T07:01:34.294Z,23.80
2019-02-07T07:04:21.267Z,23.73
2019-02-07T07:07:03.710Z,23.40
2019-02-07T07:09:48.935Z,22.83
2019-02-07T07:12:21.847Z,22.17
2019-02-07T07:15:08.653Z,23.03
2019-02-07T07:17:50.698Z,23.27
2019-02-07T07:20:21.030Z,22.43
2019-02-07T07:23:07.727Z,23.13
2019-02-07T07:25:37.934Z,22.37
2019-02-07T07:28:10.490Z,23.60
2019-02-07T07:30:43.549Z,22.73
2019-02-07T07:33:22.851Z,22.30
2019-02-07T07:35:53.094Z,23.03
2019-02-07T07:38:29.230Z,22.67
2019-02-07T07:41:05.261Z,23.07
2019-02-07T07:43:50.815Z,22.53
2019-02-07T07:46:27.311Z,23.03
2019-02-07T07:49:15.376Z,24.37
2019-02-07T07:52:02.103Z,22.20
2019-02-07T07:54:37.867Z,23.37
2019-02-07T07:57:19.825Z,22.80
2019-02-07T07:59:52.955Z,23.73
2019-02-07T08:02:41.619Z,23.97
2019-02-07T08:05:21.015Z,22.07
2019-02-07T08:07:54.140Z,23.17
2019-02-07T08:10:33.002Z,22.50
2019-02-07T08:13:19.435Z,23.13
2019-02-07T08:15:58.762Z,24.27
2019-02-07T08:18:38.334Z,24.37
2019-02-07T08:21:26.730Z,23.50
2019-02-07T08:24:12.126Z,22.97
2019-02-07T08:26:44.979Z,24.83
2019-02-07T08:32:13.786Z,24.83
2019-02-07T08:34:43.962Z,22.43
2019-02-07T08:37:19.751Z,24.13
2019-02-07T08:40:05.992Z,26.23
2019-02-07T08:42:53.006Z,26.00
2019-02-07T08:45:29.271Z,24.80
2019-02-07T08:47:59.542Z,26.67
2019-02-07T08:50:29.653Z,24.57
2019-02-07T08:53:05.954Z,25.03
2019-02-07T08:55:42.145Z,26.60
2019-02-07T09:01:15.207Z,27.63
2019-02-07T09:03:50.903Z,27.40
2019-02-07T09:06:27.218Z,27.70
2019-02-07T09:09:03.183Z,27.77
2019-02-07T09:11:48.402Z,28.57
2019-02-07T09:14:18.617Z,28.17
2019-02-07T09:17:00.839Z,28.27
2019-02-07T09:19:47.256Z,27.93
2019-02-07T09:22:17.571Z,28.17
2019-02-07T09:25:04.135Z,27.03
2019-02-07T09:27:49.227Z,28.30
2019-02-07T09:30:30.435Z,27.93
2019-02-07T09:33:03.322Z,27.20
2019-02-07T09:35:42.639Z,28.10
2019-02-07T09:38:24.862Z,28.37
2019-02-07T09:41:10.407Z,27.80
2019-02-07T09:43:43.583Z,26.60
2019-02-07T09:46:30.071Z,28.13
2019-02-07T09:49:00.255Z,26.50
2019-02-07T09:51:30.502Z,26.10
2019-02-07T09:56:53.812Z,28.80
2019-02-07T09:59:39.111Z,26.53
2019-02-07T10:02:25.918Z,27.67
2019-02-07T10:05:07.875Z,26.60
2019-02-07T10:07:56.451Z,27.30
2019-02-07T10:10:32.392Z,27.37
2019-02-07T10:13:02.600Z,27.50
2019-02-07T10:15:36.279Z,26.80
2019-02-07T10:18:07.022Z,27.27
2019-02-07T10:20:40.163Z,27.67
2019-02-07T10:23:22.327Z,28.20
2019-02-07T10:26:11.368Z,27.63
2019-02-07T10:28:47.046Z,27.73
2019-02-07T10:31:17.254Z,26.30
2019-02-07T10:33:50.399Z,26.37
2019-02-07T10:36:30.846Z,26.93
2019-02-07T10:39:03.995Z,27.20
2019-02-07T10:41:49.455Z,26.33
2019-02-07T10:44:22.748Z,26.80
2019-02-07T10:47:09.063Z,27.50
2019-02-07T10:49:58.899Z,25.77
2019-02-07T10:52:23.530Z,26.40
2019-02-07T10:54:53.710Z,26.67
2019-02-07T10:57:42.398Z,27.17
2019-02-07T11:00:21.134Z,28.23
2019-02-07T11:03:10.554Z,26.27
2019-02-07T11:05:46.845Z,26.30
2019-02-07T11:08:48.550Z,27.87
2019-02-07T11:11:21.894Z,27.43
2019-02-07T11:14:07.062Z,26.10
2019-02-07T11:16:53.463Z,26.97
2019-02-07T11:19:39.570Z,24.87
2019-02-07T11:22:13.599Z,25.67
2019-02-07T11:24:59.080Z,26.93
2019-02-07T11:27:35.399Z,25.63
2019-02-07T11:30:08.312Z,26.13
2019-02-07T11:32:38.559Z,27.63
2019-02-07T11:35:15.139Z,27.60
2019-02-07T11:37:54.626Z,27.90
2019-02-07T11:40:25.127Z,28.00
2019-02-07T11:43:13.658Z,28.80
2019-02-07T11:46:00.456Z,26.80
2019-02-07T11:48:37.082Z,28.43
2019-02-07T11:51:10.343Z,29.93
2019-02-07T11:53:55.706Z,28.90
2019-02-07T11:56:44.991Z,28.47
2019-02-07T11:59:27.343Z,28.20
2019-02-07T12:02:08.832Z,27.73
2019-02-07T12:04:32.251Z,29.40
2019-02-07T12:07:05.477Z,28.87
2019-02-07T12:09:52.595Z,28.37
2019-02-07T12:12:25.643Z,27.30
2019-02-07T12:15:12.062Z,28.50
2019-02-07T12:17:58.620Z,28.60
2019-02-07T12:20:28.807Z,28.20
2019-02-07T12:22:59.091Z,28.47
2019-02-07T12:25:29.435Z,27.43
2019-02-07T12:27:59.623Z,27.93
2019-02-07T12:30:45.053Z,28.47
2019-02-07T12:33:21.714Z,26.53
2019-02-07T12:35:51.928Z,28.17
2019-02-07T12:38:27.630Z,28.87
2019-02-07T12:40:57.895Z,28.33
2019-02-07T12:43:31.114Z,27.27
2019-02-07T12:46:13.660Z,27.37
2019-02-07T12:48:59.803Z,27.67
2019-02-07T12:51:33.162Z,27.73
2019-02-07T12:54:19.755Z,27.50
2019-02-07T12:56:52.706Z,27.73
2019-02-07T12:59:41.211Z,28.00
2019-02-07T13:02:11.503Z,28.80
2019-02-07T13:04:50.535Z,29.70
2019-02-07T13:07:32.536Z,28.50
2019-02-07T13:10:11.331Z,30.23
2019-02-07T13:12:41.696Z,30.13
2019-02-07T13:15:15.600Z,28.83
2019-02-07T13:17:57.730Z,29.13
2019-02-07T13:20:28.088Z,29.13
2019-02-07T13:23:14.910Z,29.77
2019-02-07T13:25:56.905Z,27.67
2019-02-07T13:28:45.714Z,30.27
2019-02-07T13:31:21.826Z,30.10
2019-02-07T13:33:56.488Z,29.07
2019-02-07T13:36:35.070Z,28.57
2019-02-07T13:39:14.441Z,28.47
2019-02-07T13:41:51.522Z,29.13
2019-02-07T13:44:41.864Z,29.00
2019-02-07T13:47:23.223Z,27.93
2019-02-07T13:50:00.381Z,28.97
2019-02-07T13:52:40.846Z,29.17
2019-02-07T13:55:13.312Z,28.97
2019-02-07T13:58:01.649Z,29.50
2019-02-07T14:00:44.027Z,27.90
2019-02-07T14:03:30.354Z,28.77
2019-02-07T14:06:09.511Z,29.30
2019-02-07T14:08:45.144Z,28.60
2019-02-07T14:11:17.951Z,30.13
2019-02-07T14:14:03.152Z,29.03
2019-02-07T14:16:35.932Z,28.90
2019-02-07T14:19:09.062Z,28.47
2019-02-07T14:21:45.261Z,29.40
2019-02-07T14:24:18.554Z,29.63
2019-02-07T14:26:48.771Z,29.33
2019-02-07T14:29:18.958Z,30.23
2019-02-07T14:31:54.995Z,28.33
2019-02-07T14:34:25.205Z,29.30
2019-02-07T14:36:55.486Z,29.43
2019-02-07T14:39:28.974Z,29.33
2019-02-07T14:42:05.458Z,30.27
2019-02-07T14:44:38.179Z,30.27
2019-02-07T14:47:06.740Z,30.20
2019-02-07T14:49:35.728Z,29.43
2019-02-07T14:52:04.826Z,30.20
2019-02-07T14:54:33.649Z,31.40
2019-02-07T14:57:02.941Z,30.23
2019-02-07T14:59:31.852Z,30.13
2019-02-07T15:02:00.792Z,31.57
2019-02-07T15:04:29.440Z,30.10
2019-02-07T15:06:58.002Z,30.73
2019-02-07T15:09:26.715Z,30.23
2019-02-07T15:11:55.340Z,31.00
2019-02-07T15:14:23.959Z,30.20
2019-02-07T15:16:52.646Z,32.37
2019-02-07T15:19:21.143Z,31.63
2019-02-07T15:21:49.879Z,31.57
2019-02-07T15:24:18.514Z,31.27
2019-02-07T15:26:47.128Z,32.13
2019-02-07T15:29:16.202Z,31.27
2019-02-07T15:31:44.903Z,32.00
2019-02-07T15:34:13.451Z,32.53
2019-02-07T15:36:42.159Z,32.93
2019-02-07T15:39:12.722Z,31.80
2019-02-07T15:41:41.333Z,32.37
2019-02-07T15:44:10.118Z,32.03
2019-02-07T15:46:38.750Z,32.27
2019-02-07T15:49:07.293Z,31.57
2019-02-07T15:51:35.934Z,35.20
2019-02-07T15:54:05.522Z,31.27
2019-02-07T15:56:34.059Z,32.43
2019-02-07T15:59:04.396Z,34.67
2019-02-07T16:01:40.612Z,33.77
2019-02-07T16:04:10.854Z,33.87
2019-02-07T16:06:39.831Z,33.10
2019-02-07T16:09:09.595Z,34.23
2019-02-07T16:11:38.726Z,34.00
2019-02-07T16:14:07.603Z,36.03
2019-02-07T16:16:36.243Z,34.80
2019-02-07T16:19:05.355Z,33.73
2019-02-07T16:21:34.195Z,31.27
2019-02-07T16:24:02.895Z,34.87
2019-02-07T16:26:31.487Z,34.73
2019-02-07T16:29:00.088Z,32.53
2019-02-07T16:31:28.825Z,34.33
2019-02-07T16:33:57.511Z,34.13
2019-02-07T16:36:26.318Z,34.90
2019-02-07T16:38:54.915Z,35.80
2019-02-07T16:41:23.632Z,36.70
2019-02-07T16:43:52.309Z,35.60
2019-02-07T16:46:21.143Z,35.80
2019-02-07T16:48:52.058Z,36.03
2019-02-07T16:51:20.831Z,34.03
2019-02-07T16:53:49.435Z,38.77
2019-02-07T16:56:19.202Z,37.00
2019-02-07T16:58:48.961Z,38.00
2019-02-07T17:01:17.617Z,37.03
2019-02-07T17:03:46.348Z,35.77
2019-02-07T17:06:15.009Z,36.10
2019-02-07T17:08:43.870Z,38.40
2019-02-07T17:11:12.918Z,37.30
2019-02-07T17:13:41.610Z,36.37
2019-02-07T17:16:10.359Z,39.43
2019-02-07T17:18:38.926Z,40.77
2019-02-07T17:21:12.194Z,40.80
2019-02-07T17:23:38.086Z,39.87
2019-02-07T17:26:06.763Z,39.47
2019-02-07T17:28:35.327Z,41.57
2019-02-07T17:31:04.454Z,40.50
2019-02-07T17:33:33.089Z,37.97
2019-02-07T17:36:01.722Z,38.00
2019-02-07T17:38:30.330Z,40.03
2019-02-07T17:40:58.902Z,42.10
2019-02-07T17:43:27.438Z,42.17
2019-02-07T17:45:56.070Z,37.63
2019-02-07T17:48:24.951Z,39.80
2019-02-07T17:50:53.574Z,39.80
2019-02-07T17:53:22.291Z,40.13
2019-02-07T17:55:51.150Z,37.77
2019-02-07T17:58:19.687Z,41.20
2019-02-07T18:00:57.910Z,42.40
2019-02-07T18:03:26.457Z,40.67
2019-02-07T18:05:55.093Z,41.10
2019-02-07T18:08:23.723Z,40.97
2019-02-07T18:10:52.843Z,38.10
2019-02-07T18:13:21.459Z,38.00
2019-02-07T18:15:50.142Z,37.17
2019-02-07T18:18:18.948Z,40.17
2019-02-07T18:20:47.719Z,41.40
2019-02-07T18:23:16.431Z,39.70
2019-02-07T18:25:45.394Z,40.33
2019-02-07T18:28:14.112Z,40.50
2019-02-07T18:30:42.567Z,40.10
2019-02-07T18:33:11.155Z,40.07
2019-02-07T18:35:39.781Z,44.70
2019-02-07T18:38:08.382Z,42.33
2019-02-07T18:40:37.034Z,38.97
2019-02-07T18:43:06.018Z,38.33
2019-02-07T18:45:34.678Z,38.43
2019-02-07T18:48:03.299Z,37.97
2019-02-07T18:50:34.483Z,36.40
2019-02-07T18:53:03.272Z,39.10
2019-02-07T18:55:31.879Z,37.77
2019-02-07T18:58:00.803Z,38.33
2019-02-07T19:00:37.475Z,36.67
2019-02-07T19:03:08.055Z,36.13
2019-02-07T19:05:36.757Z,35.90
2019-02-07T19:08:06.439Z,37.03
2019-02-07T19:10:35.128Z,36.03
2019-02-07T19:13:04.146Z,35.83
2019-02-07T19:15:36.431Z,35.57
2019-02-07T19:18:05.335Z,33.50
2019-02-07T19:20:34.040Z,38.57
2019-02-07T19:23:02.651Z,35.03
2019-02-07T19:25:31.190Z,35.30
2019-02-07T19:28:00.127Z,35.10
2019-02-07T19:30:49.542Z,34.67
2019-02-07T19:33:18.099Z,33.43
2019-02-07T19:35:46.562Z,35.10
2019-02-07T19:38:15.258Z,35.30
2019-02-07T19:40:44.046Z,38.70
2019-02-07T19:43:12.682Z,37.57
2019-02-07T19:45:41.227Z,34.50
2019-02-07T19:48:09.812Z,34.20
2019-02-07T19:50:38.386Z,36.60
2019-02-07T19:53:06.991Z,36.30
2019-02-07T19:55:35.937Z,36.20
2019-02-07T19:58:04.918Z,37.07
2019-02-07T20:00:34.318Z,37.40
2019-02-07T20:03:03.072Z,37.43
2019-02-07T20:05:31.759Z,38.10
2019-02-07T20:08:00.534Z,37.13
2019-02-07T20:10:30.061Z,38.37
2019-02-07T20:12:59.435Z,40.13
2019-02-07T20:15:30.622Z,39.30
2019-02-07T20:18:00.091Z,35.93
2019-02-07T20:20:28.815Z,36.10
2019-02-07T20:22:57.612Z,35.80
2019-02-07T20:25:26.591Z,35.50
2019-02-07T20:27:55.535Z,33.37
2019-02-07T20:30:29.594Z,32.07
2019-02-07T20:33:18.992Z,32.57
2019-02-07T20:35:47.564Z,31.20
2019-02-07T20:38:16.306Z,33.30
2019-02-07T20:40:45.250Z,31.07
2019-02-07T20:43:14.044Z,34.37
2019-02-07T20:45:42.616Z,32.80
2019-02-07T20:48:11.416Z,32.30
2019-02-07T20:50:40.024Z,32.10
2019-02-07T20:53:10.335Z,29.70
2019-02-07T20:55:38.954Z,30.00
2019-02-07T20:58:08.030Z,31.40
2019-02-07T21:00:38.715Z,32.47
2019-02-07T21:03:07.925Z,29.47
2019-02-07T21:05:37.202Z,29.53
2019-02-07T21:08:06.507Z,28.90
2019-02-07T21:10:37.227Z,28.87
2019-02-07T21:13:06.612Z,27.17
2019-02-07T21:15:35.711Z,25.90
2019-02-07T21:18:05.018Z,28.60
2019-02-07T21:20:33.660Z,26.57
2019-02-07T21:23:02.669Z,28.00
2019-02-07T21:25:46.123Z,29.40
2019-02-07T21:28:14.858Z,26.47
2019-02-07T21:30:43.535Z,26.57
2019-02-07T21:33:12.180Z,27.90
2019-02-07T21:35:40.815Z,27.80
2019-02-07T21:38:09.953Z,26.97
2019-02-07T21:40:38.512Z,26.20
2019-02-07T21:43:07.310Z,25.23
2019-02-07T21:45:36.114Z,25.20
2019-02-07T21:48:06.888Z,26.10
2019-02-07T21:50:35.462Z,24.60
2019-02-07T21:55:39.634Z,24.40
2019-02-07T21:58:09.242Z,26.27
2019-02-07T22:00:40.619Z,26.17
2019-02-07T22:03:10.728Z,27.07
2019-02-07T22:05:39.336Z,26.87
2019-02-07T22:08:08.630Z,27.37
2019-02-07T22:10:37.514Z,27.23
2019-02-07T22:13:06.890Z,26.60
2019-02-07T22:15:35.526Z,24.87
2019-02-07T22:18:04.610Z,25.80
2019-02-07T22:20:33.226Z,25.97
2019-02-07T22:23:01.863Z,25.77
2019-02-07T22:25:30.466Z,26.13
2019-02-07T22:27:59.194Z,27.03
2019-02-07T22:30:35.919Z,24.53
2019-02-07T22:33:06.911Z,23.90
2019-02-07T22:35:35.622Z,24.27
2019-02-07T22:38:05.803Z,25.93
2019-02-07T22:40:34.508Z,25.37
2019-02-07T22:43:03.186Z,25.47
2019-02-07T22:45:31.678Z,23.47
2019-02-07T22:48:00.237Z,22.57
2019-02-07T22:50:30.666Z,22.57
2019-02-07T22:53:00.859Z,22.80
2019-02-07T22:55:29.648Z,22.07
2019-02-07T22:57:58.378Z,23.50
2019-02-07T23:00:34.602Z,22.17
2019-02-07T23:03:07.443Z,21.03
2019-02-07T23:05:36.024Z,22.63
2019-02-07T23:08:05.310Z,21.47
2019-02-07T23:10:34.090Z,20.60
2019-02-07T23:13:03.225Z,20.67
2019-02-07T23:15:31.766Z,21.53
2019-02-07T23:18:00.398Z,22.07
2019-02-07T23:20:28.974Z,20.83
2019-02-07T23:23:05.080Z,23.07
2019-02-07T23:25:27.846Z,24.23
2019-02-07T23:27:56.823Z,23.00
2019-02-07T23:30:25.362Z,22.57
2019-02-07T23:32:53.831Z,22.13
2019-02-07T23:35:22.480Z,23.70
2019-02-07T23:37:51.110Z,24.63
2019-02-07T23:40:21.006Z,22.33
2019-02-07T23:42:50.140Z,21.73
2019-02-07T23:45:24.058Z,21.40
2019-02-07T23:47:52.735Z,21.27
2019-02-07T23:50:21.632Z,21.43
2019-02-07T23:52:50.259Z,21.20
2019-02-07T23:55:18.962Z,20.87
2019-02-07T23:57:47.588Z,20.37
